CheckWX is a tool to help pilots better visualize weather data.  It is not intended as a substitute for an official pre-flight weather briefing.

09:24:06 UTC

FJDG TAF
Diego Garcia NSF Airport
Camp Justice, British Indian Ocean Territory
TAF FJDG 180900Z 1809/1915 12012KT 9999 SCT020 SCT040 QNH2980INS TEMPO 1809/1813 12012G18KT TEMPO 1817/1821 9000 -SHRA BKN020 BECMG 1821/1822 10009KT 9999 SCT020 SCT050 QNH2983INS TX32/1909Z TN25/1900Z

Jun-18@
09:00 UTC

Jun-18 @ 09:00 UTC

Jun-18@
21:00 UTC

Jun-18 @ 21:00 UTC

TAF FJDG 180900Z 1809/1915 12012KT 9999 SCT020 SCT040 QNH2980INS
Wind
  • 120° at 12 KTS
Cloud Levels
  • Scattered at 2,000' AGL
  • Scattered at 4,000' AGL

Jun-18@
09:00 UTC

Jun-18 @ 09:00 UTC

Jun-18@
13:00 UTC

Jun-18 @ 13:00 UTC

TEMPO 1809/1813 12012G18KT

Temporary

Temporary Changes expected for less than half the time period

Wind
  • 120° at 12 KTS
  • {Gusting to 18 KTS

Jun-18@
17:00 UTC

Jun-18 @ 17:00 UTC

Jun-18@
21:00 UTC

Jun-18 @ 21:00 UTC

TEMPO 1817/1821 9000 -SHRA BKN020

Temporary

Temporary Changes expected for less than half the time period

Conditions
Light Rain
Cloud Levels
  • Broken at 2,000' AGL

Jun-18@
21:00 UTC

Jun-18 @ 21:00 UTC

Jun-19@
15:00 UTC

Jun-19 @ 15:00 UTC

BECMG 1821/1822 10009KT 9999 SCT020 SCT050 QNH2983INS TX32/1909Z TN25/1900Z

Becoming

Becoming Conditions expected by Tue, Jun 18, 2019 @ 22:00 UTC

Wind
  • 100° at 9 KTS
Cloud Levels
  • Scattered at 2,000' AGL
  • Scattered at 5,000' AGL